Time;durP1;ratioP1;P1;durP2;ratioP2;P2;SDS_P1;SDS_P2;PMS_P1;PMS_P2;Temp;Humidity;BMP_temperature;BMP_pressure;BME280_temperature;BME280_humidity;BME280_pressure;Samples;Min_cycle;Max_cycle;Signal;HPM_P1;HPM_P2
2022/09/04 00:00:40;;;;;;;6.10;4.90;;;;;;;25.87;49.84;99758.44;4130886;28;20233;-67
2022/09/04 00:02:57;;;;;;;5.60;4.73;;;;;;;26.04;49.69;99761.03;4133537;28;20941;-65
2022/09/04 00:05:15;;;;;;;5.73;4.23;;;;;;;25.97;49.43;99757.72;4128593;28;20229;-64
2022/09/04 00:07:51;;;;;;;5.73;4.27;;;;;;;25.88;49.90;99764.69;4130318;28;20237;-64
2022/09/04 00:10:18;;;;;;;6.17;4.47;;;;;;;25.97;49.17;99760.44;4131892;28;20796;-65
2022/09/04 00:12:30;;;;;;;5.37;4.37;;;;;;;26.20;49.03;99767.41;4133783;28;20229;-64
2022/09/04 00:14:58;;;;;;;6.13;4.13;;;;;;;26.03;49.30;99762.13;4141879;28;20892;-64
2022/09/04 00:17:07;;;;;;;5.27;4.40;;;;;;;24.91;51.90;99772.72;4140762;28;20286;-65
2022/09/04 00:19:20;;;;;;;4.50;3.30;;;;;;;24.20;53.30;99751.66;4138140;28;20236;-64
2022/09/04 00:21:35;;;;;;;5.40;3.43;;;;;;;24.68;52.30;99734.63;4143418;28;20237;-64
2022/09/04 00:24:04;;;;;;;5.97;3.33;;;;;;;25.24;51.14;99723.56;4134981;28;20238;-64
2022/09/04 00:26:37;;;;;;;6.33;3.60;;;;;;;25.58;49.93;99744.31;4139982;28;20236;-65
2022/09/04 00:28:46;;;;;;;4.05;3.50;;;;;;;24.11;53.47;99762.09;4137065;28;20664;-64
2022/09/04 00:30:58;;;;;;;6.03;3.50;;;;;;;24.57;51.92;99759.22;4142998;28;20364;-65
2022/09/04 00:33:10;;;;;;;5.33;3.60;;;;;;;24.56;52.26;99744.78;4141179;28;20295;-64
2022/09/04 00:35:17;;;;;;;7.97;3.57;;;;;;;24.32;52.74;99730.63;4157829;28;20223;-65
2022/09/04 00:37:25;;;;;;;5.50;3.42;;;;;;;24.36;52.53;99744.53;4139079;28;20237;-64
2022/09/04 00:39:42;;;;;;;8.10;3.80;;;;;;;25.36;50.73;99728.06;4137058;28;20236;-65
2022/09/04 00:42:02;;;;;;;5.93;3.45;;;;;;;25.52;49.96;99761.69;4140438;28;20233;-64
2022/09/04 00:44:12;;;;;;;5.38;3.58;;;;;;;24.75;51.68;99777.09;4139120;28;20233;-64
2022/09/04 00:46:38;;;;;;;4.53;3.58;;;;;;;24.50;52.47;99771.09;4141011;28;20236;-64
2022/09/04 00:48:58;;;;;;;4.83;3.30;;;;;;;24.27;52.70;99761.25;4138941;28;20225;-64
2022/09/04 00:51:32;;;;;;;5.03;3.30;;;;;;;24.61;52.13;99753.00;4139843;28;20233;-64
2022/09/04 00:54:00;;;;;;;9.83;3.23;;;;;;;25.05;50.81;99763.91;4138575;28;20233;-64
2022/09/04 00:56:24;;;;;;;3.20;2.90;;;;;;;24.96;51.28;99759.19;4141466;28;20272;-65
2022/09/04 00:58:48;;;;;;;6.13;3.60;;;;;;;25.20;50.54;99759.69;4140782;28;20233;-65
2022/09/04 01:00:54;;;;;;;4.37;3.30;;;;;;;24.77;50.84;99783.16;4137467;28;20256;-64
2022/09/04 01:03:05;;;;;;;4.53;3.60;;;;;;;24.32;51.84;99801.25;4138695;28;20320;-64
2022/09/04 01:05:31;;;;;;;8.23;3.50;;;;;;;24.60;51.67;99781.28;4139674;28;20233;-64
2022/09/04 01:08:02;;;;;;;8.30;3.73;;;;;;;24.21;52.26;99794.03;4136634;28;20238;-65
2022/09/04 01:10:42;;;;;;;5.30;3.17;;;;;;;24.04;52.67;99796.72;4134107;28;20225;-65
2022/09/04 01:13:11;;;;;;;11.00;3.10;;;;;;;23.88;52.81;99806.53;4136914;28;20221;-64
2022/09/04 01:15:19;;;;;;;5.67;3.43;;;;;;;24.36;51.74;99790.72;4136813;28;20347;-65
2022/09/04 01:17:37;;;;;;;4.80;3.47;;;;;;;24.38;51.57;99803.00;4140409;28;20251;-64
2022/09/04 01:20:08;;;;;;;4.55;3.63;;;;;;;23.58;53.52;99800.31;4139388;28;20241;-64
2022/09/04 01:22:45;;;;;;;5.90;3.60;;;;;;;23.65;53.23;99800.16;4140352;28;20283;-64
2022/09/04 01:24:58;;;;;;;5.23;3.67;;;;;;;23.83;52.62;99799.13;4140936;28;20319;-64
2022/09/04 01:27:37;;;;;;;5.00;3.50;;;;;;;23.82;52.89;99783.88;4141067;28;20248;-64
2022/09/04 01:30:09;;;;;;;5.03;3.50;;;;;;;23.74;53.11;99789.75;4136773;28;20243;-64
2022/09/04 01:32:29;;;;;;;6.60;3.63;;;;;;;24.64;51.32;99787.03;4130785;28;20228;-65
2022/09/04 01:34:49;;;;;;;7.00;3.70;;;;;;;24.79;50.69;99798.13;4126044;28;20539;-65
2022/09/04 01:37:02;;;;;;;7.53;3.37;;;;;;;24.78;50.79;99798.38;4139256;28;20710;-64
2022/09/04 01:39:04;;;;;;;7.43;3.50;;;;;;;24.52;50.81;99821.66;4138829;28;20715;-63
2022/09/04 01:41:09;;;;;;;6.37;3.60;;;;;;;24.61;50.81;99812.81;4141234;28;20241;-64
2022/09/04 01:43:16;;;;;;;6.17;3.90;;;;;;;24.29;51.72;99801.75;4140112;28;20226;-64
2022/09/04 01:45:28;;;;;;;6.97;4.00;;;;;;;24.44;51.05;99821.00;4137736;28;20765;-64
2022/09/04 01:47:49;;;;;;;4.90;3.93;;;;;;;24.67;51.18;99808.28;4137685;28;20229;-64
2022/09/04 01:50:02;;;;;;;6.43;4.17;;;;;;;23.93;52.46;99839.19;4140469;28;20728;-64
2022/09/04 01:52:07;;;;;;;7.30;4.40;;;;;;;23.75;52.53;99822.06;4138395;28;20225;-64
2022/09/04 01:54:27;;;;;;;4.30;3.90;;;;;;;24.28;51.52;99808.28;4139720;28;20225;-64
2022/09/04 01:57:05;;;;;;;6.50;4.37;;;;;;;24.44;51.60;99801.97;4139509;28;20225;-64
2022/09/04 01:59:24;;;;;;;5.37;4.20;;;;;;;24.18;52.22;99806.22;4125994;28;20237;-64
2022/09/04 02:01:37;;;;;;;7.77;4.37;;;;;;;22.63;55.77;99821.44;4137782;28;20249;-65
2022/09/04 02:04:01;;;;;;;8.93;4.00;;;;;;;22.92;54.76;99799.00;4135802;28;20610;-65
2022/09/04 02:06:40;;;;;;;7.43;3.60;;;;;;;24.40;50.97;99792.69;4136327;28;20233;-63
2022/09/04 02:08:48;;;;;;;5.90;3.70;;;;;;;24.89;50.27;99797.44;4138753;28;20554;-66
2022/09/04 02:11:12;;;;;;;8.47;4.60;;;;;;;24.79;50.49;99829.94;4138943;28;20233;-65
2022/09/04 02:13:33;;;;;;;6.70;4.63;;;;;;;22.41;55.98;99840.19;4140209;28;20233;-66
2022/09/04 02:15:51;;;;;;;6.77;4.47;;;;;;;23.82;53.69;99792.03;4139398;28;20299;-63
2022/09/04 02:18:10;;;;;;;7.00;5.20;;;;;;;23.53;54.02;99802.91;4139257;28;20237;-61
2022/09/04 02:20:14;;;;;;;7.80;5.13;;;;;;;22.82;55.76;99803.13;4139505;28;20874;-66
2022/09/04 02:22:34;;;;;;;8.43;5.20;;;;;;;23.84;53.91;99786.34;4139913;28;20746;-65
2022/09/04 02:24:56;;;;;;;6.80;5.93;;;;;;;24.34;52.39;99792.88;4139775;28;20259;-65
2022/09/04 02:27:12;;;;;;;7.30;5.10;;;;;;;24.83;50.87;99814.75;4140725;28;20241;-63
2022/09/04 02:29:43;;;;;;;6.67;5.57;;;;;;;25.01;50.71;99819.88;4139445;28;20244;-63
2022/09/04 02:32:01;;;;;;;8.63;5.37;;;;;;;24.69;51.39;99825.97;4138088;28;20311;-63
2022/09/04 02:34:19;;;;;;;7.03;5.13;;;;;;;24.84;50.94;99833.53;4136844;28;20260;-63
2022/09/04 02:36:32;;;;;;;8.57;5.20;;;;;;;24.10;51.84;99866.38;4140601;28;20229;-63
2022/09/04 02:38:39;;;;;;;7.70;4.70;;;;;;;23.23;53.48;99876.38;4136934;28;20229;-63
2022/09/04 02:41:04;;;;;;;7.10;5.30;;;;;;;23.82;53.15;99824.59;4141386;28;20726;-63
2022/09/04 02:43:34;;;;;;;7.70;5.57;;;;;;;24.42;51.64;99830.50;4138655;28;20287;-65
2022/09/04 02:45:45;;;;;;;9.73;5.70;;;;;;;24.53;50.99;99859.47;4135344;28;20239;-64
2022/09/04 02:48:05;;;;;;;7.70;5.93;;;;;;;23.48;54.02;99862.50;4138655;28;20225;-64
2022/09/04 02:50:29;;;;;;;7.83;6.40;;;;;;;24.17;52.71;99836.34;4140678;28;20233;-64
2022/09/04 02:52:37;;;;;;;11.43;6.07;;;;;;;24.10;52.41;99856.31;4125072;28;20252;-64
2022/09/04 02:54:44;;;;;;;12.00;6.50;;;;;;;24.47;51.99;99836.81;4134399;28;20233;-65
2022/09/04 02:57:10;;;;;;;8.10;6.17;;;;;;;24.93;51.08;99833.91;4141335;28;20865;-65
2022/09/04 02:59:24;;;;;;;9.17;6.87;;;;;;;23.11;54.64;99887.28;4135899;28;20280;-65
2022/09/04 03:01:41;;;;;;;8.80;6.47;;;;;;;22.27;56.76;99865.78;4138851;28;20306;-65
2022/09/04 03:04:07;;;;;;;8.73;6.30;;;;;;;24.09;52.71;99834.81;4137552;28;20290;-64
2022/09/04 03:06:22;;;;;;;9.57;6.53;;;;;;;24.53;52.02;99836.88;4138551;28;20233;-65
2022/09/04 03:08:46;;;;;;;9.07;6.87;;;;;;;23.01;54.65;99873.50;4135723;28;20232;-64
2022/09/04 03:10:58;;;;;;;10.53;6.37;;;;;;;22.14;56.93;99857.91;4140291;28;20592;-64
2022/09/04 03:13:08;;;;;;;7.70;6.87;;;;;;;22.70;55.49;99858.44;4137167;28;20237;-64
2022/09/04 03:15:51;;;;;;;9.23;6.87;;;;;;;23.31;55.12;99829.09;4137632;28;20811;-64
2022/09/04 03:18:12;;;;;;;9.13;6.47;;;;;;;23.81;53.90;99825.69;4138552;28;20324;-65
2022/09/04 03:20:24;;;;;;;8.37;6.70;;;;;;;24.21;52.87;99819.31;4139896;28;20610;-64
2022/09/04 03:22:35;;;;;;;10.43;7.07;;;;;;;24.56;51.37;99847.25;4134597;28;20232;-64
2022/09/04 03:24:48;;;;;;;9.13;7.00;;;;;;;24.30;51.78;99868.63;4136264;28;20280;-64
2022/09/04 03:26:55;;;;;;;9.53;6.60;;;;;;;24.88;50.82;99852.09;4142625;28;20299;-64
2022/09/04 03:28:59;;;;;;;9.27;6.57;;;;;;;24.11;51.52;99887.03;4137341;28;20237;-64
2022/09/04 03:31:17;;;;;;;8.43;7.23;;;;;;;24.72;51.41;99851.03;4140408;28;20256;-65
2022/09/04 03:33:30;;;;;;;8.40;7.07;;;;;;;24.55;51.74;99867.34;4137856;28;20764;-64
2022/09/04 03:35:40;;;;;;;8.93;6.70;;;;;;;24.38;51.93;99872.81;4137924;28;20283;-64
2022/09/04 03:37:45;;;;;;;8.40;6.47;;;;;;;24.67;51.10;99866.19;4135534;28;21523;-65
2022/09/04 03:39:58;;;;;;;10.53;7.40;;;;;;;24.55;51.44;99884.50;4139721;28;20717;-64
2022/09/04 03:42:36;;;;;;;8.70;6.67;;;;;;;24.37;51.94;99876.59;4134627;28;20262;-65
2022/09/04 03:45:12;;;;;;;8.70;6.60;;;;;;;23.80;52.04;99904.66;4136310;28;20236;-65
2022/09/04 03:47:32;;;;;;;14.73;6.43;;;;;;;24.08;51.74;99884.81;4141200;28;20236;-66
2022/09/04 03:50:19;;;;;;;16.93;7.10;;;;;;;23.57;52.55;99909.94;4143553;28;20295;-63
2022/09/04 03:52:33;;;;;;;7.97;6.10;;;;;;;23.84;52.72;99884.09;4113716;28;20242;-66
2022/09/04 03:55:11;;;;;;;7.43;6.17;;;;;;;24.17;51.85;99877.91;4118296;28;20604;-66
2022/09/04 03:57:29;;;;;;;7.40;6.40;;;;;;;24.48;51.23;99864.81;4134936;28;20290;-63
2022/09/04 03:59:50;;;;;;;7.47;6.17;;;;;;;24.50;51.23;99863.50;4139863;28;20283;-66
2022/09/04 04:02:05;;;;;;;7.10;6.40;;;;;;;24.55;51.26;99873.63;4135909;28;20676;-63
2022/09/04 04:04:48;;;;;;;9.23;6.40;;;;;;;24.40;51.75;99882.38;4140001;28;20225;-66
2022/09/04 04:07:20;;;;;;;7.00;6.30;;;;;;;24.78;50.91;99866.34;4142083;28;20232;-64
2022/09/04 04:10:05;;;;;;;6.37;5.77;;;;;;;23.35;54.01;99884.50;4138564;28;20288;-62
2022/09/04 04:12:38;;;;;;;6.47;5.70;;;;;;;22.90;54.72;99906.88;4126762;28;20234;-62
2022/09/04 04:15:05;;;;;;;7.20;5.70;;;;;;;23.88;52.56;99869.78;4138277;28;20609;-61
2022/09/04 04:17:09;;;;;;;6.53;5.27;;;;;;;23.78;52.97;99879.66;4139430;28;20241;-62
2022/09/04 04:19:51;;;;;;;6.60;5.87;;;;;;;24.16;51.50;99884.41;4141328;28;20291;-63
2022/09/04 04:22:13;;;;;;;6.97;5.70;;;;;;;24.28;51.10;99904.19;4146947;28;20807;-62
2022/09/04 04:24:29;;;;;;;5.70;5.10;;;;;;;24.20;51.33;99903.78;4137155;28;20228;-61
2022/09/04 04:27:02;;;;;;;5.70;5.17;;;;;;;24.34;50.77;99912.44;4141803;28;20225;-62
2022/09/04 04:29:13;;;;;;;5.83;5.27;;;;;;;24.16;51.39;99925.16;4138828;28;20241;-64
2022/09/04 04:31:33;;;;;;;6.33;5.10;;;;;;;23.70;52.09;99929.72;4139053;28;20264;-60
2022/09/04 04:34:10;;;;;;;6.70;5.10;;;;;;;22.33;53.88;99965.13;4136826;28;20793;-61
2022/09/04 04:36:19;;;;;;;5.87;4.53;;;;;;;21.93;55.76;99927.75;4139701;28;20225;-61
2022/09/04 04:38:38;;;;;;;6.47;5.33;;;;;;;22.92;53.48;99918.28;4146496;28;20973;-62
2022/09/04 04:41:22;;;;;;;6.37;5.50;;;;;;;24.44;50.50;99907.16;4139617;28;20248;-60
2022/09/04 04:44:01;;;;;;;5.90;5.00;;;;;;;23.24;52.30;99958.63;4140924;28;20225;-64
2022/09/04 04:46:27;;;;;;;5.77;5.00;;;;;;;23.88;51.67;99924.09;4137456;28;20271;-64
2022/09/04 04:49:03;;;;;;;6.70;5.20;;;;;;;23.46;52.42;99921.63;4136696;28;20636;-62
2022/09/04 04:51:12;;;;;;;10.53;4.60;;;;;;;23.50;52.33;99922.81;4139433;28;20287;-64
2022/09/04 04:53:23;;;;;;;4.80;4.30;;;;;;;23.86;51.38;99912.66;4144024;28;20228;-61
2022/09/04 04:55:33;;;;;;;4.80;4.30;;;;;;;23.66;51.94;99923.97;4137070;28;20853;-63
2022/09/04 04:57:42;;;;;;;8.13;4.07;;;;;;;23.56;51.97;99945.47;4140155;28;20319;-61
2022/09/04 04:59:50;;;;;;;5.10;4.23;;;;;;;23.14;53.24;99924.75;4142646;28;20758;-64
2022/09/04 05:02:17;;;;;;;4.77;4.23;;;;;;;23.39;51.42;99948.09;4139589;28;20228;-62
2022/09/04 05:04:44;;;;;;;6.60;4.40;;;;;;;23.02;52.28;99957.31;4139500;28;20233;-62
2022/09/04 05:07:20;;;;;;;6.60;4.30;;;;;;;23.80;50.90;99931.81;4140977;28;20229;-63
2022/09/04 05:09:36;;;;;;;6.60;3.80;;;;;;;23.31;51.84;99962.03;4140862;28;20741;-62
2022/09/04 05:12:16;;;;;;;4.23;3.70;;;;;;;23.01;52.40;99962.97;4139879;28;20240;-62
2022/09/04 05:14:42;;;;;;;4.30;3.47;;;;;;;23.18;51.67;99974.78;4139889;28;20236;-61
2022/09/04 05:16:51;;;;;;;4.00;3.70;;;;;;;22.44;53.84;99969.75;4139028;28;20279;-63
2022/09/04 05:19:11;;;;;;;4.73;3.57;;;;;;;22.73;53.04;99977.22;4134934;28;20237;-61
2022/09/04 05:21:22;;;;;;;3.80;3.40;;;;;;;23.52;51.58;99953.25;4141903;28;20229;-63
2022/09/04 05:23:45;;;;;;;4.93;4.00;;;;;;;23.05;52.71;99982.31;4143450;28;20287;-63
2022/09/04 05:26:02;;;;;;;4.43;4.00;;;;;;;22.91;53.68;99951.88;4137043;28;20299;-63
2022/09/04 05:28:22;;;;;;;7.40;4.43;;;;;;;23.15;52.37;99975.25;4140844;28;20225;-61
2022/09/04 05:30:49;;;;;;;5.23;4.60;;;;;;;23.70;51.64;99951.44;4142616;28;20236;-62
2022/09/04 05:33:02;;;;;;;5.23;4.70;;;;;;;23.38;51.76;99992.56;4140321;28;20229;-61
2022/09/04 05:35:37;;;;;;;7.07;4.73;;;;;;;23.58;51.90;99982.16;4139101;28;20222;-63
2022/09/04 05:38:04;;;;;;;5.37;4.40;;;;;;;23.46;52.05;99975.91;4139430;28;20229;-61
2022/09/04 05:40:09;;;;;;;6.00;4.77;;;;;;;23.72;51.62;99990.03;4138699;28;20233;-61
2022/09/04 05:42:22;;;;;;;5.77;4.83;;;;;;;22.97;52.97;100033.13;4139823;28;20295;-62
2022/09/04 05:44:35;;;;;;;6.03;5.10;;;;;;;23.09;53.22;99992.47;4138963;28;20236;-63
2022/09/04 05:47:07;;;;;;;6.60;5.23;;;;;;;23.50;52.61;99990.66;4139610;28;20286;-62
2022/09/04 05:49:39;;;;;;;6.03;5.17;;;;;;;23.76;51.98;99985.78;4134973;28;20296;-62
2022/09/04 05:52:02;;;;;;;6.30;5.10;;;;;;;23.48;52.36;100021.78;4140650;28;20279;-63
2022/09/04 05:54:40;;;;;;;6.20;4.40;;;;;;;23.17;53.17;100031.97;4139283;28;21017;-63
2022/09/04 05:56:44;;;;;;;5.93;4.73;;;;;;;21.94;56.10;100048.53;4140838;28;20770;-62
2022/09/04 05:59:04;;;;;;;7.50;5.10;;;;;;;22.58;55.28;100016.44;4139070;28;20283;-62
2022/09/04 06:01:40;;;;;;;6.53;5.40;;;;;;;22.88;54.65;100010.13;4140030;28;20237;-62
2022/09/04 06:03:58;;;;;;;8.43;5.10;;;;;;;23.24;54.00;100000.13;4137295;28;20608;-64
2022/09/04 06:06:05;;;;;;;6.30;5.37;;;;;;;22.79;54.80;100016.94;4142078;28;20698;-62
2022/09/04 06:08:37;;;;;;;6.57;5.93;;;;;;;22.72;55.23;100017.03;4137956;28;20224;-63
2022/09/04 06:10:41;;;;;;;7.13;6.07;;;;;;;23.25;54.67;99990.09;4139076;28;20641;-62
2022/09/04 06:13:04;;;;;;;6.80;6.07;;;;;;;23.97;53.04;99984.28;4137577;28;20237;-62
2022/09/04 06:15:24;;;;;;;8.20;6.50;;;;;;;24.11;52.16;100020.94;4137307;28;20232;-62
2022/09/04 06:17:35;;;;;;;8.00;6.40;;;;;;;23.62;53.99;100033.25;4141322;28;20664;-62
2022/09/04 06:20:09;;;;;;;9.30;6.37;;;;;;;23.77;53.52;100025.41;4135196;28;20241;-62
2022/09/04 06:22:41;;;;;;;7.40;6.13;;;;;;;23.74;53.40;100040.31;4124396;28;20271;-62
2022/09/04 06:25:14;;;;;;;10.27;6.30;;;;;;;23.38;54.68;100041.38;4138330;28;20264;-62
2022/09/04 06:27:42;;;;;;;8.37;6.53;;;;;;;23.24;55.30;100027.25;4134272;28;20256;-62
2022/09/04 06:29:54;;;;;;;8.20;6.10;;;;;;;23.49;54.66;100043.28;4140774;28;20287;-63
2022/09/04 06:32:26;;;;;;;7.30;6.60;;;;;;;23.29;55.06;100024.66;4137735;28;20291;-62
2022/09/04 06:35:08;;;;;;;6.87;5.83;;;;;;;24.16;53.18;100017.50;4137342;28;20748;-62
2022/09/04 06:37:17;;;;;;;8.00;5.90;;;;;;;23.45;54.93;100055.69;4140012;28;20279;-62
2022/09/04 06:39:25;;;;;;;7.07;5.53;;;;;;;24.53;52.67;100038.03;4135780;28;20688;-63
2022/09/04 06:42:04;;;;;;;7.00;5.93;;;;;;;23.90;53.48;100068.59;4133026;28;20616;-63
2022/09/04 06:44:08;;;;;;;6.10;5.50;;;;;;;23.32;55.53;100089.28;4138943;28;20228;-63
2022/09/04 06:46:32;;;;;;;7.30;5.57;;;;;;;22.88;56.83;100058.91;4139844;28;20233;-62
2022/09/04 06:48:59;;;;;;;6.30;5.70;;;;;;;24.68;52.83;100024.69;4139012;28;20312;-63
2022/09/04 06:51:22;;;;;;;6.93;5.37;;;;;;;24.39;53.30;100057.34;4139100;28;20307;-63
2022/09/04 06:54:15;;;;;;;7.03;5.90;;;;;;;24.24;53.74;100060.59;4136198;28;20230;-63
2022/09/04 06:56:43;;;;;;;6.90;5.47;;;;;;;24.25;54.18;100061.44;4123561;28;20312;-62
2022/09/04 06:58:45;;;;;;;7.97;5.70;;;;;;;24.23;54.18;100056.25;4121572;28;20234;-66
2022/09/04 07:01:02;;;;;;;6.23;5.50;;;;;;;23.91;54.81;100083.84;4120509;28;20954;-65
2022/09/04 07:03:37;;;;;;;7.20;5.70;;;;;;;24.96;53.10;100040.13;4129037;28;20229;-63
2022/09/04 07:06:15;;;;;;;8.10;6.17;;;;;;;24.34;54.07;100075.47;4111374;28;20275;-63
2022/09/04 07:08:42;;;;;;;6.27;5.37;;;;;;;24.05;54.72;100064.56;4120492;28;20244;-63
2022/09/04 07:11:21;;;;;;;7.10;5.40;;;;;;;24.09;54.57;100080.13;4138521;28;20221;-62
2022/09/04 07:13:46;;;;;;;7.67;6.00;;;;;;;23.67;55.14;100093.06;4138989;28;20256;-62
2022/09/04 07:16:16;;;;;;;7.37;6.23;;;;;;;23.99;54.52;100088.09;4139855;28;20241;-63
2022/09/04 07:18:42;;;;;;;8.13;5.87;;;;;;;25.19;52.75;100069.06;4137817;28;20253;-63
2022/09/04 07:21:14;;;;;;;8.33;6.47;;;;;;;24.50;53.78;100116.28;4141769;28;20224;-62
2022/09/04 07:23:21;;;;;;;9.40;6.97;;;;;;;23.36;56.32;100101.31;4141947;28;20256;-62
2022/09/04 07:25:28;;;;;;;9.40;6.70;;;;;;;23.91;55.00;100097.41;4141193;28;20279;-61
2022/09/04 07:28:06;;;;;;;11.20;7.87;;;;;;;24.42;53.88;100104.97;4142497;28;20244;-62
2022/09/04 07:30:14;;;;;;;8.87;7.67;;;;;;;23.87;54.88;100117.13;4142269;28;20272;-63
2022/09/04 07:32:28;;;;;;;9.97;7.43;;;;;;;22.71;57.16;100144.66;4142152;28;20291;-62
2022/09/04 07:34:54;;;;;;;12.57;8.27;;;;;;;23.47;56.20;100086.13;4139958;28;20225;-62
2022/09/04 07:37:05;;;;;;;9.80;7.93;;;;;;;22.77;57.64;100136.44;4140530;28;20229;-63
2022/09/04 07:39:22;;;;;;;10.60;8.17;;;;;;;23.21;56.66;100122.66;4141639;28;20248;-63
2022/09/04 07:41:50;;;;;;;10.53;7.43;;;;;;;24.08;55.06;100085.81;4141221;28;20241;-63
2022/09/04 07:44:02;;;;;;;10.70;7.87;;;;;;;24.23;54.22;100107.88;4140967;28;20221;-64
2022/09/04 07:46:04;;;;;;;10.23;8.00;;;;;;;24.01;54.99;100120.41;4139237;28;20587;-63
2022/09/04 07:48:42;;;;;;;9.17;8.17;;;;;;;23.99;55.36;100115.25;4142525;28;20231;-63
2022/09/04 07:51:03;;;;;;;8.50;7.05;;;;;;;24.13;55.53;100108.47;4139716;28;20379;-62
2022/09/04 07:53:33;;;;;;;9.23;7.87;;;;;;;24.99;52.99;100099.50;4141364;28;20233;-63
2022/09/04 07:55:46;;;;;;;10.10;8.33;;;;;;;24.58;54.36;100133.25;4139526;28;20240;-62
2022/09/04 07:58:23;;;;;;;8.80;7.90;;;;;;;24.87;53.86;100115.06;4142491;28;20229;-63
2022/09/04 08:00:27;;;;;;;8.37;6.93;;;;;;;24.04;55.02;100145.22;4139315;28;20237;-63
2022/09/04 08:02:51;;;;;;;8.82;7.22;;;;;;;24.19;55.02;100143.91;4143034;28;20229;-63
2022/09/04 08:05:18;;;;;;;9.60;6.80;;;;;;;24.17;54.85;100146.03;4139868;28;20877;-62
2022/09/04 08:07:47;;;;;;;12.32;7.13;;;;;;;24.94;53.38;100113.00;4142108;28;20233;-63
2022/09/04 08:10:21;;;;;;;9.02;6.78;;;;;;;24.96;53.55;100131.81;4139438;28;20298;-61
2022/09/04 08:12:47;;;;;;;8.87;6.90;;;;;;;25.76;52.05;100146.97;4133816;28;20229;-62
2022/09/04 08:15:20;;;;;;;9.43;6.73;;;;;;;25.45;52.13;100163.94;4138463;28;20225;-62
2022/09/04 08:17:25;;;;;;;5.78;5.15;;;;;;;24.71;53.28;100187.34;4143546;28;20717;-63
2022/09/04 08:20:04;;;;;;;8.43;5.70;;;;;;;25.11;53.00;100158.44;4139777;28;20245;-62
2022/09/04 08:22:14;;;;;;;7.03;5.30;;;;;;;25.36;52.99;100156.16;4143121;28;20252;-62
2022/09/04 08:24:40;;;;;;;6.53;5.18;;;;;;;25.31;52.77;100171.56;4140836;28;20233;-63
2022/09/04 08:26:45;;;;;;;4.82;4.32;;;;;;;25.52;52.60;100168.13;4139702;28;20287;-63
2022/09/04 08:28:55;;;;;;;7.73;4.50;;;;;;;26.55;49.73;100163.28;4140968;28;20239;-62
2022/09/04 08:31:29;;;;;;;4.20;3.80;;;;;;;26.07;50.60;100203.81;4137343;28;20233;-63
2022/09/04 08:34:10;;;;;;;5.32;4.05;;;;;;;26.34;50.24;100198.44;4139903;28;20229;-63
2022/09/04 08:36:34;;;;;;;7.30;4.72;;;;;;;26.48;50.00;100202.41;4123013;28;20821;-63
2022/09/04 08:39:18;;;;;;;4.32;3.85;;;;;;;26.76;49.45;100192.41;4138804;28;20290;-63
2022/09/04 08:41:44;;;;;;;6.30;3.47;;;;;;;25.82;50.98;100212.41;4107405;28;20242;-62
2022/09/04 08:44:33;;;;;;;4.85;3.95;;;;;;;26.08;50.34;100202.72;4138780;28;20233;-62
2022/09/04 08:47:00;;;;;;;4.05;3.47;;;;;;;25.84;50.66;100211.06;4121713;28;20328;-63
2022/09/04 08:49:46;;;;;;;4.20;3.80;;;;;;;26.45;49.53;100185.75;4120256;28;20280;-63
2022/09/04 08:52:00;;;;;;;7.32;3.58;;;;;;;26.73;49.48;100182.00;4118383;28;20233;-63
2022/09/04 08:54:20;;;;;;;4.90;3.50;;;;;;;26.34;49.37;100209.34;4136734;28;20233;-62
2022/09/04 08:56:52;;;;;;;5.10;3.33;;;;;;;26.94;48.72;100182.22;4142738;28;20292;-63
2022/09/04 08:59:00;;;;;;;5.03;3.33;;;;;;;26.88;49.01;100206.72;4140905;28;20237;-63
2022/09/04 09:01:30;;;;;;;3.45;3.15;;;;;;;27.29;47.59;100202.78;4138493;28;20244;-63
2022/09/04 09:03:46;;;;;;;3.58;3.28;;;;;;;27.33;48.04;100210.19;4137629;28;20234;-63
2022/09/04 09:06:21;;;;;;;4.72;2.90;;;;;;;26.68;48.74;100225.59;4132623;28;20466;-63
2022/09/04 09:08:37;;;;;;;5.65;2.65;;;;;;;26.46;49.06;100228.31;4135343;28;20330;-63
2022/09/04 09:10:55;;;;;;;2.88;2.60;;;;;;;26.57;49.01;100194.66;4136671;28;20230;-63
2022/09/04 09:13:21;;;;;;;4.43;2.90;;;;;;;27.42;47.10;100186.75;4131926;28;20651;-62
2022/09/04 09:15:54;;;;;;;5.65;3.25;;;;;;;27.53;46.58;100200.50;4136385;28;20241;-63
2022/09/04 09:18:16;;;;;;;4.30;2.92;;;;;;;27.84;45.74;100207.03;4141189;28;20225;-62
2022/09/04 09:20:43;;;;;;;5.13;2.88;;;;;;;28.00;45.94;100205.22;4140367;28;20237;-63
2022/09/04 09:23:13;;;;;;;3.10;2.60;;;;;;;28.04;45.54;100205.50;4138278;28;20890;-62
2022/09/04 09:25:23;;;;;;;4.00;2.50;;;;;;;27.68;46.07;100210.75;4137613;28;20709;-63
2022/09/04 09:27:55;;;;;;;5.30;2.55;;;;;;;28.05;45.91;100199.75;4140455;28;20241;-62
2022/09/04 09:30:17;;;;;;;3.53;2.78;;;;;;;28.59;44.84;100200.56;4141672;28;20230;-63
2022/09/04 09:32:37;;;;;;;3.35;2.38;;;;;;;27.74;46.31;100201.50;4141289;28;20228;-62
2022/09/04 09:34:57;;;;;;;3.72;2.88;;;;;;;27.85;46.63;100196.91;4136582;28;20233;-63
2022/09/04 09:37:20;;;;;;;3.00;2.30;;;;;;;27.54;46.92;100200.22;4136516;28;20237;-63
2022/09/04 09:39:34;;;;;;;3.90;2.67;;;;;;;28.01;46.24;100179.53;4137216;28;20245;-63
2022/09/04 09:41:52;;;;;;;3.03;2.63;;;;;;;27.97;46.34;100165.56;4138424;28;20288;-62
2022/09/04 09:44:10;;;;;;;4.38;2.50;;;;;;;27.92;46.55;100159.25;4139668;28;20281;-63
2022/09/04 09:46:30;;;;;;;3.47;2.88;;;;;;;27.49;47.07;100156.50;4139451;28;20706;-62
2022/09/04 09:49:06;;;;;;;2.95;2.40;;;;;;;26.03;49.09;100134.53;4136569;28;20238;-62
2022/09/04 09:51:40;;;;;;;3.05;2.10;;;;;;;27.68;46.22;100139.72;4141359;28;20347;-62
2022/09/04 09:54:01;;;;;;;2.50;2.20;;;;;;;28.49;44.74;100146.66;4139989;28;20240;-63
2022/09/04 09:56:39;;;;;;;3.88;2.20;;;;;;;27.72;46.27;100146.28;4137266;28;20236;-63
2022/09/04 09:59:08;;;;;;;2.35;2.15;;;;;;;27.73;45.59;100143.28;4138644;28;20222;-63
2022/09/04 10:01:29;;;;;;;3.85;2.00;;;;;;;28.84;44.21;100143.19;4144139;28;20232;-63
2022/09/04 10:03:37;;;;;;;2.42;2.22;;;;;;;28.25;45.52;100157.25;4136821;28;20699;-62
2022/09/04 10:06:18;;;;;;;3.55;2.88;;;;;;;28.48;44.51;100175.13;4133934;28;20240;-63
2022/09/04 10:08:50;;;;;;;3.30;2.30;;;;;;;28.21;45.38;100165.16;4124211;28;20232;-65
2022/09/04 10:11:12;;;;;;;2.95;2.00;;;;;;;28.61;42.52;100162.81;4124200;28;20241;-62
2022/09/04 10:13:28;;;;;;;3.78;2.03;;;;;;;28.73;42.72;100169.72;4119843;28;20225;-62
2022/09/04 10:16:03;;;;;;;2.53;2.00;;;;;;;29.15;41.68;100167.84;4123351;28;20296;-62
2022/09/04 10:18:38;;;;;;;2.47;2.10;;;;;;;29.67;41.69;100141.25;4125561;28;20283;-62
2022/09/04 10:21:19;;;;;;;5.32;2.20;;;;;;;29.50;42.09;100157.19;4139278;28;20288;-62
2022/09/04 10:23:39;;;;;;;2.53;2.00;;;;;;;29.29;42.32;100163.50;4136160;28;20239;-62
2022/09/04 10:25:47;;;;;;;3.40;2.00;;;;;;;28.24;43.90;100139.19;4137450;28;20234;-63
2022/09/04 10:28:29;;;;;;;2.40;2.00;;;;;;;28.91;42.91;100130.06;4138911;28;20302;-62
2022/09/04 10:31:02;;;;;;;3.13;2.40;;;;;;;26.97;45.16;100135.31;4127436;28;20890;-63
2022/09/04 10:33:30;;;;;;;3.22;2.22;;;;;;;28.60;42.60;100118.25;4131082;28;20685;-62
2022/09/04 10:35:40;;;;;;;2.83;2.20;;;;;;;28.34;43.71;100123.66;4134879;28;20710;-61
2022/09/04 10:38:05;;;;;;;3.33;2.17;;;;;;;28.41;43.41;100125.28;4133069;28;20473;-62
2022/09/04 10:40:43;;;;;;;3.30;1.90;;;;;;;29.47;40.82;100085.44;4133377;28;20234;-62
2022/09/04 10:43:27;;;;;;;2.55;1.90;;;;;;;29.48;41.54;100122.66;4135191;28;20228;-63
2022/09/04 10:45:40;;;;;;;2.15;1.80;;;;;;;29.40;40.70;100123.22;4130950;28;20258;-63
2022/09/04 10:48:27;;;;;;;1.80;1.70;;;;;;;29.60;40.48;100130.56;4130703;28;20554;-63
2022/09/04 10:50:55;;;;;;;2.83;1.77;;;;;;;29.13;41.44;100133.63;4132809;28;20578;-62
2022/09/04 10:53:13;;;;;;;2.38;2.10;;;;;;;28.58;42.25;100100.44;4131597;28;20291;-63
2022/09/04 10:55:30;;;;;;;3.97;1.70;;;;;;;29.65;40.21;100092.19;4133732;28;20248;-62
2022/09/04 10:57:48;;;;;;;2.95;1.80;;;;;;;29.15;39.89;100139.66;4139262;28;20781;-62
2022/09/04 11:00:12;;;;;;;2.72;1.75;;;;;;;30.32;38.25;100105.69;4134114;28;20237;-62
2022/09/04 11:03:34;;;;;;;1.92;1.77;;;;;;;29.17;39.47;100097.22;4147815;27;20974;-63
2022/09/04 11:06:07;;;;;;;9.00;2.13;;;;;;;28.88;40.09;100114.22;4143178;28;20258;-66